Time;durP1;ratioP1;P1;durP2;ratioP2;P2;SDS_P1;SDS_P2;PMS_P1;PMS_P2;Temp;Humidity;BMP_temperature;BMP_pressure;BME280_temperature;BME280_humidity;BME280_pressure;Samples;Min_cycle;Max_cycle;Signal;HPM_P1;HPM_P2
2021/08/11 01:11:25;;;;;;;4.13;3.97;;;23.90;72.10;;;;;;4960797;28;20354;-75
2021/08/11 01:13:52;;;;;;;4.63;4.43;;;23.90;70.70;;;;;;4958624;28;20708;-76
2021/08/11 01:16:18;;;;;;;4.55;4.30;;;23.80;70.90;;;;;;4961758;28;20174;-75
2021/08/11 01:33:09;;;;;;;4.38;4.15;;;23.80;72.70;;;;;;4963074;28;20707;-75
2021/08/11 01:35:44;;;;;;;4.47;4.28;;;23.70;73.60;;;;;;4922816;29;20231;-75
2021/08/11 01:38:15;;;;;;;4.90;4.55;;;23.70;71.40;;;;;;4927355;29;20219;-75
2021/08/11 01:40:48;;;;;;;4.75;4.35;;;23.70;71.60;;;;;;4922005;29;20263;-74
2021/08/11 01:43:17;;;;;;;5.25;4.93;;;23.70;71.80;;;;;;4905028;29;20199;-76
2021/08/11 01:45:43;;;;;;;5.43;5.03;;;23.60;72.00;;;;;;4922847;29;20197;-75
2021/08/11 01:48:13;;;;;;;5.22;4.72;;;23.60;72.20;;;;;;4906533;29;20180;-75
2021/08/11 01:50:48;;;;;;;8.23;5.13;;;23.50;72.70;;;;;;4920995;29;20192;-75
2021/08/11 01:53:20;;;;;;;4.40;4.20;;;23.50;73.00;;;;;;4903955;29;20226;-75
2021/08/11 01:55:51;;;;;;;4.25;4.05;;;23.40;73.00;;;;;;4904716;29;20227;-75
2021/08/11 01:58:25;;;;;;;4.97;4.70;;;23.40;73.10;;;;;;4919162;29;20651;-74
2021/08/11 02:00:53;;;;;;;5.15;4.85;;;23.30;73.20;;;;;;4910713;29;20191;-75
2021/08/11 02:03:21;;;;;;;4.90;4.63;;;23.20;73.40;;;;;;4903636;29;20180;-74
2021/08/11 02:05:54;;;;;;;4.38;4.13;;;23.10;73.30;;;;;;4923387;28;20305;-74
2021/08/11 02:08:43;;;;;;;5.85;4.78;;;23.00;73.70;;;;;;4974689;28;20194;-75
2021/08/11 02:11:12;;;;;;;6.07;4.63;;;23.00;74.70;;;;;;4956404;28;20186;-74
2021/08/11 02:13:39;;;;;;;4.80;4.50;;;23.00;73.50;;;;;;4957604;28;20997;-75
2021/08/11 02:16:07;;;;;;;4.82;4.32;;;23.00;74.20;;;;;;4957887;28;20615;-75
2021/08/11 02:18:32;;;;;;;4.78;4.53;;;22.90;73.70;;;;;;4957370;28;20187;-75
2021/08/11 02:20:58;;;;;;;4.32;4.15;;;22.90;73.70;;;;;;4955978;28;20282;-75
2021/08/11 02:23:24;;;;;;;5.05;4.65;;;22.90;73.80;;;;;;4957039;28;20646;-75
2021/08/11 02:26:17;;;;;;;4.10;3.90;;;22.90;73.80;;;;;;4956465;28;20217;-76
2021/08/11 02:28:52;;;;;;;4.45;4.10;;;22.90;75.40;;;;;;4890903;29;20804;-76
2021/08/11 02:31:39;;;;;;;4.13;3.92;;;22.80;74.00;;;;;;4888803;29;20235;-76
2021/08/11 02:34:28;;;;;;;4.47;4.18;;;22.80;74.00;;;;;;4890626;29;20207;-76
2021/08/11 02:36:57;;;;;;;4.57;4.22;;;22.80;74.00;;;;;;4891521;29;20199;-74
2021/08/11 02:39:37;;;;;;;4.43;4.22;;;22.80;73.80;;;;;;4890795;29;20199;-75
2021/08/11 02:42:09;;;;;;;4.13;3.92;;;22.80;73.80;;;;;;4890862;29;20916;-76
2021/08/11 02:44:43;;;;;;;4.88;4.57;;;22.80;73.70;;;;;;4905084;29;20337;-74
2021/08/11 02:47:09;;;;;;;4.85;4.55;;;22.90;73.60;;;;;;4907467;29;20210;-76
2021/08/11 02:49:37;;;;;;;5.38;4.32;;;22.90;73.80;;;;;;4890194;29;20193;-76
2021/08/11 02:52:03;;;;;;;4.90;4.60;;;22.90;73.80;;;;;;4890007;29;20184;-77
2021/08/11 02:54:30;;;;;;;5.00;4.05;;;22.90;73.70;;;;;;4889553;29;20246;-77
2021/08/11 02:56:56;;;;;;;4.80;4.40;;;22.90;74.00;;;;;;4907643;29;20195;-76
2021/08/11 02:59:24;;;;;;;4.43;4.25;;;22.90;73.80;;;;;;4892259;29;20231;-76
2021/08/11 03:01:52;;;;;;;4.78;4.50;;;22.90;73.80;;;;;;4891501;29;20216;-76
2021/08/11 03:04:17;;;;;;;4.68;4.47;;;22.90;73.80;;;;;;4892086;29;20200;-76
2021/08/11 03:06:44;;;;;;;4.78;4.47;;;22.90;74.20;;;;;;4954009;28;20199;-77
2021/08/11 03:09:10;;;;;;;4.72;4.43;;;22.80;74.10;;;;;;4961361;28;20236;-77
2021/08/11 03:11:36;;;;;;;5.07;4.68;;;22.80;74.00;;;;;;4961590;28;20179;-75
2021/08/11 03:14:04;;;;;;;4.82;4.43;;;22.80;73.90;;;;;;4958316;28;20198;-76
2021/08/11 03:16:30;;;;;;;5.07;4.68;;;22.80;73.90;;;;;;4959276;28;20646;-75
2021/08/11 03:18:56;;;;;;;5.55;4.38;;;22.80;74.10;;;;;;4958914;28;20198;-75
2021/08/11 03:21:22;;;;;;;4.90;4.50;;;22.80;74.30;;;;;;4957752;28;20184;-76
2021/08/11 03:23:48;;;;;;;5.38;4.97;;;22.70;74.40;;;;;;4959505;28;20191;-76
2021/08/11 03:26:14;;;;;;;5.10;4.20;;;22.70;74.30;;;;;;4957901;28;20190;-76
2021/08/11 03:28:39;;;;;;;6.00;4.47;;;22.70;74.40;;;;;;4959105;28;20201;-75
2021/08/11 03:31:05;;;;;;;4.55;4.35;;;22.70;74.70;;;;;;4958725;28;20676;-76
2021/08/11 03:33:31;;;;;;;5.30;4.80;;;22.70;74.80;;;;;;4958140;28;20186;-75
2021/08/11 03:35:57;;;;;;;4.93;4.60;;;22.70;75.00;;;;;;4960864;28;20671;-75
2021/08/11 03:38:22;;;;;;;5.00;4.63;;;22.70;75.20;;;;;;4959957;28;20665;-73
2021/08/11 03:40:48;;;;;;;4.57;4.30;;;22.60;75.10;;;;;;4960563;28;20202;-74
2021/08/11 03:43:14;;;;;;;4.47;4.28;;;22.60;75.20;;;;;;4957192;28;20218;-74
2021/08/11 03:45:41;;;;;;;6.60;4.93;;;22.60;75.30;;;;;;4959166;28;20389;-74
2021/08/11 03:48:07;;;;;;;8.75;4.93;;;22.50;75.50;;;;;;4959279;28;20995;-73
2021/08/11 03:50:33;;;;;;;5.05;4.65;;;22.50;75.40;;;;;;4958461;28;20187;-74
2021/08/11 03:52:59;;;;;;;5.65;5.22;;;22.50;75.20;;;;;;4958061;28;20190;-74
2021/08/11 03:55:30;;;;;;;4.93;4.63;;;22.50;75.60;;;;;;4959854;28;20226;-74
2021/08/11 03:57:56;;;;;;;4.50;4.22;;;22.50;75.40;;;;;;4958610;28;20194;-75
2021/08/11 04:00:22;;;;;;;5.53;5.03;;;22.50;75.20;;;;;;4958600;28;20744;-74
2021/08/11 04:02:48;;;;;;;5.43;5.10;;;22.50;75.10;;;;;;4955308;28;20210;-75
2021/08/11 04:05:13;;;;;;;5.72;5.28;;;22.50;75.20;;;;;;4958774;28;20189;-75
2021/08/11 04:07:39;;;;;;;4.95;4.60;;;22.50;75.00;;;;;;4959411;28;20202;-74
2021/08/11 04:10:07;;;;;;;5.35;4.97;;;22.50;75.00;;;;;;4960861;28;20201;-75
2021/08/11 04:12:34;;;;;;;4.93;4.57;;;22.50;74.80;;;;;;4954971;28;20195;-76
2021/08/11 04:14:59;;;;;;;5.07;4.65;;;22.50;75.10;;;;;;4957592;28;20700;-74
2021/08/11 04:17:25;;;;;;;5.82;5.28;;;22.50;75.20;;;;;;4955568;28;20213;-74
2021/08/11 04:19:51;;;;;;;5.57;4.95;;;22.50;75.20;;;;;;4958671;28;20187;-75
2021/08/11 04:22:18;;;;;;;5.25;4.95;;;22.50;75.50;;;;;;4960939;28;20187;-74
2021/08/11 04:24:46;;;;;;;6.75;5.32;;;22.50;75.50;;;;;;4955862;28;20187;-74
2021/08/11 04:27:12;;;;;;;6.38;5.40;;;22.50;75.20;;;;;;4955083;28;20237;-76
2021/08/11 04:29:38;;;;;;;5.93;4.97;;;22.60;75.60;;;;;;4956378;28;20194;-75
2021/08/11 04:32:04;;;;;;;5.38;5.07;;;22.60;75.60;;;;;;4979335;28;20188;-74
2021/08/11 04:34:30;;;;;;;5.20;4.85;;;22.60;75.60;;;;;;4958614;28;20261;-74
2021/08/11 04:36:56;;;;;;;5.60;5.10;;;22.70;75.70;;;;;;4975429;28;20214;-75
2021/08/11 04:39:23;;;;;;;7.55;5.40;;;22.70;75.80;;;;;;4961907;28;20245;-75
2021/08/11 04:41:49;;;;;;;5.20;4.75;;;22.70;76.20;;;;;;4961577;28;20190;-75
2021/08/11 04:44:14;;;;;;;5.20;4.75;;;22.70;75.60;;;;;;4960721;28;20194;-75
2021/08/11 04:46:41;;;;;;;5.80;5.10;;;22.70;75.50;;;;;;4962485;28;20683;-75
2021/08/11 04:49:07;;;;;;;5.55;5.05;;;22.80;75.50;;;;;;4962344;28;20594;-75
2021/08/11 04:51:33;;;;;;;5.32;5.03;;;22.90;75.90;;;;;;4963848;28;20214;-74
2021/08/11 04:53:59;;;;;;;5.70;5.10;;;22.90;75.60;;;;;;4963863;28;20175;-73
2021/08/11 04:56:26;;;;;;;5.60;5.05;;;23.00;75.80;;;;;;4961769;28;20201;-75
2021/08/11 04:58:52;;;;;;;5.07;4.60;;;23.00;75.50;;;;;;4960840;28;20210;-75
2021/08/11 05:01:17;;;;;;;5.10;4.78;;;23.10;75.30;;;;;;4960435;28;20237;-75
2021/08/11 05:03:43;;;;;;;5.20;4.80;;;23.20;75.30;;;;;;4960675;28;20183;-74
2021/08/11 05:06:09;;;;;;;5.43;4.95;;;23.30;75.00;;;;;;4958146;28;20183;-74
2021/08/11 05:08:36;;;;;;;5.30;4.90;;;23.40;75.10;;;;;;4961055;28;20618;-73
2021/08/11 05:11:02;;;;;;;5.22;4.82;;;23.40;74.50;;;;;;4958109;28;20266;-73
2021/08/11 05:13:29;;;;;;;5.68;5.10;;;23.50;74.30;;;;;;4961148;28;20249;-73
2021/08/11 05:15:55;;;;;;;5.65;5.15;;;23.60;74.30;;;;;;4962152;28;20210;-75
2021/08/11 05:18:21;;;;;;;8.90;5.70;;;23.70;74.40;;;;;;4962547;28;20199;-75
2021/08/11 05:20:47;;;;;;;6.45;4.93;;;23.70;74.10;;;;;;4959780;28;20183;-75
2021/08/11 05:23:13;;;;;;;6.03;5.18;;;23.70;74.10;;;;;;4962226;28;20190;-75
2021/08/11 05:25:38;;;;;;;5.57;5.07;;;23.70;73.70;;;;;;4961396;28;20190;-75
2021/08/11 05:28:04;;;;;;;4.80;4.63;;;23.70;73.70;;;;;;4963631;28;20253;-75
2021/08/11 05:30:30;;;;;;;5.45;5.05;;;23.80;73.60;;;;;;4961213;28;20720;-75
2021/08/11 05:32:56;;;;;;;5.50;5.15;;;23.80;73.50;;;;;;4961795;28;20606;-74
2021/08/11 05:35:22;;;;;;;5.22;5.00;;;23.90;73.80;;;;;;4961800;28;20231;-73
2021/08/11 05:37:48;;;;;;;4.60;4.30;;;23.90;73.10;;;;;;4958965;28;20183;-75
2021/08/11 05:40:16;;;;;;;5.72;5.00;;;24.00;73.40;;;;;;4960354;28;20202;-74
2021/08/11 05:42:42;;;;;;;4.93;4.63;;;24.10;73.00;;;;;;4958350;28;20187;-74
2021/08/11 05:45:08;;;;;;;5.50;5.22;;;24.20;72.80;;;;;;4960952;28;20227;-72
2021/08/11 05:47:34;;;;;;;5.40;5.00;;;24.30;72.60;;;;;;4963340;28;20209;-73
2021/08/11 05:50:01;;;;;;;5.43;5.15;;;24.40;72.20;;;;;;4960690;28;20579;-76
2021/08/11 05:52:27;;;;;;;6.18;5.05;;;24.40;72.00;;;;;;4954127;28;20202;-76
2021/08/11 05:54:53;;;;;;;6.07;5.47;;;24.50;71.60;;;;;;4954766;28;20233;-76
2021/08/11 05:57:19;;;;;;;6.65;5.53;;;24.50;73.10;;;;;;4980603;23;20241;-73
2021/08/11 05:59:45;;;;;;;5.57;5.28;;;24.50;72.40;;;;;;4955671;28;20264;-74
2021/08/11 06:02:11;;;;;;;5.65;5.28;;;24.60;71.60;;;;;;4957406;28;20218;-73
2021/08/11 06:04:36;;;;;;;5.30;4.90;;;24.70;71.40;;;;;;4956585;28;20190;-74
2021/08/11 06:07:03;;;;;;;7.25;5.60;;;24.70;71.20;;;;;;4958755;28;20245;-75
2021/08/11 06:09:29;;;;;;;5.07;4.68;;;24.80;71.20;;;;;;4957004;28;20186;-75
2021/08/11 06:11:54;;;;;;;5.82;5.43;;;24.90;70.90;;;;;;4958193;28;20190;-75
2021/08/11 06:14:21;;;;;;;6.30;5.45;;;24.90;70.70;;;;;;4956832;28;20226;-74
2021/08/11 06:16:47;;;;;;;5.40;4.93;;;24.90;70.60;;;;;;4957894;28;20190;-74
2021/08/11 06:19:15;;;;;;;5.88;5.38;;;25.00;70.20;;;;;;4960919;28;20214;-74
2021/08/11 06:21:41;;;;;;;6.00;5.53;;;25.00;70.40;;;;;;4954591;28;20186;-74
2021/08/11 06:24:07;;;;;;;4.97;4.53;;;25.00;70.00;;;;;;4952213;28;20198;-74
2021/08/11 06:26:34;;;;;;;5.88;5.30;;;25.10;70.40;;;;;;4955731;28;20680;-74
2021/08/11 06:29:00;;;;;;;5.10;4.82;;;25.20;69.90;;;;;;4955241;28;20650;-73
2021/08/11 06:31:26;;;;;;;5.50;4.95;;;25.20;69.80;;;;;;4955338;28;20232;-73
2021/08/11 06:33:53;;;;;;;5.10;4.88;;;25.30;70.00;;;;;;4955149;28;20183;-72
2021/08/11 06:36:22;;;;;;;9.48;5.32;;;25.40;69.90;;;;;;4955782;28;20274;-71
2021/08/11 06:38:48;;;;;;;9.52;4.68;;;25.50;69.30;;;;;;4956913;28;20262;-72
2021/08/11 06:41:17;;;;;;;5.85;5.45;;;25.60;69.50;;;;;;4958094;28;20183;-73
2021/08/11 06:43:46;;;;;;;7.90;5.03;;;25.70;69.60;;;;;;4956018;28;20190;-73
2021/08/11 06:46:13;;;;;;;7.88;5.13;;;25.80;69.10;;;;;;4954715;28;20186;-73
2021/08/11 06:48:39;;;;;;;6.32;4.88;;;25.90;69.30;;;;;;4956958;28;20188;-73
2021/08/11 06:51:06;;;;;;;5.55;5.07;;;26.00;69.30;;;;;;4957671;28;20182;-73
2021/08/11 06:53:33;;;;;;;6.75;4.47;;;26.00;69.20;;;;;;4955160;28;20214;-74
2021/08/11 06:55:59;;;;;;;5.03;4.18;;;26.10;69.20;;;;;;4952996;28;20338;-74
2021/08/11 06:58:25;;;;;;;4.80;4.50;;;26.20;68.90;;;;;;4955604;28;20338;-73
2021/08/11 07:00:52;;;;;;;5.35;4.97;;;26.20;68.70;;;;;;4951512;28;20192;-74
2021/08/11 07:03:19;;;;;;;4.85;4.55;;;26.30;68.90;;;;;;4958751;28;20266;-74
2021/08/11 07:05:45;;;;;;;5.40;5.10;;;26.30;69.00;;;;;;4952484;28;20209;-74
2021/08/11 07:08:12;;;;;;;5.82;5.30;;;26.40;68.60;;;;;;4952706;28;20577;-74
2021/08/11 07:10:38;;;;;;;6.18;4.95;;;26.50;68.60;;;;;;4954407;28;20198;-73
2021/08/11 07:13:04;;;;;;;7.45;5.65;;;26.60;68.70;;;;;;4958873;28;20186;-74
2021/08/11 07:15:29;;;;;;;7.30;5.18;;;26.60;68.70;;;;;;4956676;28;20214;-74
2021/08/11 07:17:56;;;;;;;5.72;5.25;;;26.70;68.30;;;;;;4957757;28;20179;-74
2021/08/11 07:20:24;;;;;;;10.82;5.78;;;26.80;68.30;;;;;;4957050;28;20403;-74
2021/08/11 07:22:50;;;;;;;5.78;5.28;;;26.90;68.50;;;;;;4957618;28;20659;-73
2021/08/11 07:25:16;;;;;;;7.38;5.20;;;26.90;68.20;;;;;;4951092;28;20190;-74
2021/08/11 07:27:42;;;;;;;6.95;6.00;;;27.00;68.30;;;;;;4958175;28;20297;-74
2021/08/11 07:30:10;;;;;;;5.78;5.15;;;27.10;68.20;;;;;;4960905;28;20692;-74
2021/08/11 07:32:36;;;;;;;10.13;6.18;;;27.20;68.00;;;;;;4954642;28;20183;-74
2021/08/11 07:35:02;;;;;;;6.38;5.07;;;27.30;67.70;;;;;;4956251;28;20206;-75
2021/08/11 07:37:28;;;;;;;5.55;5.05;;;27.40;67.40;;;;;;4955570;28;20187;-75
2021/08/11 07:39:54;;;;;;;7.05;5.22;;;27.60;67.40;;;;;;4952638;28;20645;-74
2021/08/11 07:42:20;;;;;;;5.97;4.90;;;27.70;67.30;;;;;;4955922;28;20174;-74
2021/08/11 07:44:46;;;;;;;5.70;5.25;;;27.90;67.20;;;;;;4956281;28;20260;-74
2021/08/11 07:47:12;;;;;;;10.35;5.57;;;28.10;67.00;;;;;;4952635;28;20170;-74
2021/08/11 07:49:38;;;;;;;5.75;5.22;;;28.20;66.40;;;;;;4956885;28;20183;-74
2021/08/11 07:52:04;;;;;;;4.88;4.57;;;28.30;66.10;;;;;;4956098;28;20205;-74
2021/08/11 07:54:30;;;;;;;6.30;4.45;;;28.40;65.30;;;;;;4951693;28;20211;-74
2021/08/11 07:56:56;;;;;;;5.38;4.90;;;28.50;64.70;;;;;;4955985;28;20205;-74
2021/08/11 07:59:21;;;;;;;5.82;4.60;;;28.60;65.00;;;;;;4954970;28;20780;-74
2021/08/11 08:01:47;;;;;;;4.80;4.38;;;28.60;64.50;;;;;;4954228;28;20186;-74
2021/08/11 08:04:13;;;;;;;5.00;4.40;;;28.70;64.70;;;;;;4955575;28;20175;-73
2021/08/11 08:06:38;;;;;;;4.82;4.53;;;28.70;64.40;;;;;;4956288;28;20278;-74
2021/08/11 08:09:04;;;;;;;4.35;3.95;;;28.80;63.70;;;;;;4961056;28;20178;-74
2021/08/11 08:11:30;;;;;;;8.32;3.83;;;28.90;62.90;;;;;;4951990;28;20226;-74
2021/08/11 08:13:55;;;;;;;4.53;4.22;;;28.90;62.20;;;;;;4956409;28;20643;-74
2021/08/11 08:16:21;;;;;;;4.00;3.80;;;28.90;61.70;;;;;;4955609;28;20213;-73
2021/08/11 08:18:47;;;;;;;4.45;4.05;;;29.00;61.30;;;;;;4960620;28;20691;-75
2021/08/11 08:21:13;;;;;;;3.50;3.40;;;29.00;61.60;;;;;;4955969;28;20202;-74
2021/08/11 08:23:39;;;;;;;4.28;3.95;;;29.10;61.40;;;;;;4957854;28;20183;-74
2021/08/11 08:26:05;;;;;;;3.55;3.35;;;29.20;61.20;;;;;;4957452;28;20193;-74
2021/08/11 08:28:31;;;;;;;3.40;3.30;;;29.20;60.90;;;;;;4953984;28;20198;-74
2021/08/11 08:30:57;;;;;;;3.85;3.53;;;29.30;60.80;;;;;;4957838;28;20178;-73
2021/08/11 08:33:22;;;;;;;3.50;3.20;;;29.40;59.70;;;;;;4954889;28;20182;-75
2021/08/11 08:35:48;;;;;;;2.97;2.83;;;29.50;57.30;;;;;;4957173;28;20277;-74
2021/08/11 08:38:14;;;;;;;3.45;3.22;;;29.60;58.00;;;;;;4956796;28;20221;-75
2021/08/11 08:40:43;;;;;;;3.60;3.40;;;29.70;58.70;;;;;;4957712;28;20273;-75
2021/08/11 08:43:09;;;;;;;3.47;3.35;;;29.70;58.60;;;;;;4956083;28;20178;-74
2021/08/11 08:45:35;;;;;;;3.17;2.88;;;29.90;58.50;;;;;;4955540;28;20185;-74
2021/08/11 08:48:03;;;;;;;3.25;3.15;;;30.00;58.10;;;;;;4957832;28;20241;-75
2021/08/11 08:50:30;;;;;;;3.10;3.00;;;30.10;57.50;;;;;;4955684;28;20332;-75
2021/08/11 08:52:56;;;;;;;3.47;3.38;;;30.20;57.20;;;;;;4950982;28;20241;-75
2021/08/11 08:55:23;;;;;;;3.83;3.47;;;30.30;56.90;;;;;;4958061;28;20211;-75
2021/08/11 08:57:49;;;;;;;3.72;3.58;;;30.30;56.40;;;;;;4955082;28;20689;-75
2021/08/11 09:00:15;;;;;;;7.10;3.75;;;30.50;56.90;;;;;;4951581;28;20187;-75
2021/08/11 09:02:41;;;;;;;3.88;3.63;;;30.60;57.40;;;;;;4958226;28;20673;-74
2021/08/11 09:05:09;;;;;;;4.07;3.83;;;30.80;57.60;;;;;;4952364;28;20187;-74
2021/08/11 09:07:35;;;;;;;4.07;3.70;;;30.90;57.10;;;;;;4957392;28;20269;-75
2021/08/11 09:10:21;;;;;;;3.85;3.75;;;31.10;56.80;;;;;;4956553;28;20175;-75
2021/08/11 09:12:48;;;;;;;4.07;3.78;;;31.20;55.40;;;;;;4952611;28;20183;-74
2021/08/11 09:15:34;;;;;;;3.50;3.40;;;31.20;55.50;;;;;;4953218;28;20206;-75
2021/08/11 09:18:15;;;;;;;3.38;3.28;;;31.20;53.10;;;;;;4955198;28;20655;-75
2021/08/11 09:21:10;;;;;;;6.97;4.13;;;31.10;54.50;;;;;;4953556;28;20194;-74
2021/08/11 09:23:37;;;;;;;7.32;3.78;;;31.30;55.40;;;;;;4957848;28;20171;-75
2021/08/11 09:26:08;;;;;;;8.60;3.92;;;31.40;55.30;;;;;;4960512;28;20233;-75
2021/08/11 09:28:36;;;;;;;3.55;3.45;;;31.60;56.20;;;;;;4960438;28;20191;-75
2021/08/11 09:31:32;;;;;;;3.30;3.20;;;31.90;54.50;;;;;;4956189;28;20213;-75
2021/08/11 09:34:06;;;;;;;4.70;3.80;;;32.20;53.60;;;;;;4970188;28;20270;-75
2021/08/11 09:36:51;;;;;;;3.83;3.63;;;32.50;54.00;;;;;;4958758;28;20194;-75
2021/08/11 09:39:18;;;;;;;3.67;3.47;;;32.90;53.10;;;;;;4959173;28;20206;-75
2021/08/11 09:42:01;;;;;;;3.40;3.22;;;33.30;51.80;;;;;;4957719;28;20249;-75
2021/08/11 09:44:28;;;;;;;4.15;3.90;;;33.50;51.60;;;;;;4958572;28;20261;-75
2021/08/11 09:46:54;;;;;;;3.70;3.50;;;33.80;51.20;;;;;;4955234;28;20186;-75
2021/08/11 09:49:25;;;;;;;4.03;3.72;;;34.10;51.00;;;;;;4960874;28;20256;-75
2021/08/11 09:52:02;;;;;;;3.83;3.72;;;34.60;50.20;;;;;;4961027;28;20188;-75
2021/08/11 09:54:29;;;;;;;3.63;3.38;;;35.20;49.10;;;;;;4954947;28;20226;-75
2021/08/11 09:56:56;;;;;;;4.50;4.22;;;35.70;48.10;;;;;;4957175;28;20710;-75
2021/08/11 09:59:22;;;;;;;3.80;3.67;;;36.20;49.10;;;;;;4957137;28;20602;-75
2021/08/11 10:01:48;;;;;;;4.47;3.30;;;36.90;47.60;;;;;;4955806;28;20660;-75
2021/08/11 10:04:14;;;;;;;4.25;3.75;;;37.50;47.00;;;;;;4955606;28;20583;-75
2021/08/11 10:06:45;;;;;;;3.28;3.17;;;38.30;47.00;;;;;;4961447;28;20193;-75
2021/08/11 10:09:17;;;;;;;3.65;3.38;;;39.00;46.60;;;;;;4960400;28;20197;-75
2021/08/11 10:11:50;;;;;;;3.28;3.15;;;39.60;44.60;;;;;;4961430;28;20182;-75
2021/08/11 10:14:21;;;;;;;3.00;2.80;;;40.10;43.40;;;;;;4958237;28;20272;-75
2021/08/11 10:16:47;;;;;;;4.13;3.38;;;40.70;43.60;;;;;;4959993;28;20727;-75
2021/08/11 10:19:14;;;;;;;5.28;3.22;;;41.20;41.30;;;;;;4954414;28;20564;-75
2021/08/11 10:22:00;;;;;;;3.13;3.03;;;41.70;42.40;;;;;;4959728;28;20334;-75
2021/08/11 10:24:28;;;;;;;3.20;3.00;;;42.30;40.40;;;;;;4955869;28;20265;-75
2021/08/11 10:26:54;;;;;;;3.38;3.17;;;42.80;42.50;;;;;;4955960;28;20182;-75
2021/08/11 10:29:21;;;;;;;3.40;3.28;;;43.10;40.60;;;;;;4955733;28;20186;-74
2021/08/11 10:31:47;;;;;;;3.30;3.05;;;43.40;42.10;;;;;;4955746;28;20260;-73
2021/08/11 10:34:17;;;;;;;3.05;2.85;;;43.60;39.70;;;;;;4955863;28;20178;-73
2021/08/11 10:36:44;;;;;;;3.58;3.38;;;43.80;41.20;;;;;;4962063;28;21122;-74
2021/08/11 10:39:11;;;;;;;3.08;2.90;;;44.10;40.50;;;;;;4959152;28;20189;-74
2021/08/11 10:41:38;;;;;;;2.55;2.45;;;44.30;40.50;;;;;;4957077;28;20177;-74
2021/08/11 10:44:05;;;;;;;3.05;2.90;;;44.40;38.60;;;;;;4956386;28;20175;-74
2021/08/11 10:46:39;;;;;;;3.03;2.85;;;44.30;40.20;;;;;;4956675;28;20239;-74
2021/08/11 10:49:07;;;;;;;4.15;3.17;;;44.30;40.10;;;;;;4951766;28;20884;-73
2021/08/11 10:51:42;;;;;;;4.78;2.70;;;44.50;40.90;;;;;;4958582;28;20264;-74
2021/08/11 10:54:08;;;;;;;3.08;2.97;;;44.70;38.80;;;;;;4953968;28;20189;-74
2021/08/11 10:56:55;;;;;;;2.38;2.38;;;44.80;38.60;;;;;;4957016;28;20354;-74
2021/08/11 10:59:24;;;;;;;3.13;2.92;;;45.10;38.40;;;;;;4953923;28;20279;-74
2021/08/11 11:01:57;;;;;;;4.53;2.60;;;45.50;38.80;;;;;;4956976;28;20206;-73
2021/08/11 11:04:39;;;;;;;3.20;3.10;;;45.80;39.60;;;;;;4960373;28;20233;-74
2021/08/11 11:07:15;;;;;;;3.10;3.00;;;46.10;37.70;;;;;;4958244;28;20664;-75
2021/08/11 11:09:45;;;;;;;3.10;3.00;;;46.30;38.00;;;;;;4958887;28;20186;-75
2021/08/11 11:12:17;;;;;;;2.70;2.60;;;46.60;38.60;;;;;;4955345;28;20181;-75
2021/08/11 11:14:51;;;;;;;2.72;2.72;;;46.90;37.40;;;;;;4959555;28;20226;-74
2021/08/11 11:17:57;;;;;;;2.83;2.70;;;47.30;37.60;;;;;;4958518;28;20196;-74
2021/08/11 11:20:24;;;;;;;2.95;2.83;;;47.70;35.90;;;;;;4955017;28;20186;-74
2021/08/11 11:22:55;;;;;;;3.17;3.08;;;47.90;37.50;;;;;;4957631;28;20610;-74
2021/08/11 11:25:53;;;;;;;2.75;2.65;;;47.90;36.70;;;;;;4955998;28;20213;-74
2021/08/11 11:28:19;;;;;;;3.10;3.00;;;48.00;35.80;;;;;;4942303;28;20580;-74
2021/08/11 11:30:45;;;;;;;2.90;2.80;;;48.10;38.10;;;;;;4958670;28;20191;-74
2021/08/11 11:33:28;;;;;;;3.53;3.30;;;48.20;36.70;;;;;;4945854;28;20633;-74
2021/08/11 11:36:19;;;;;;;2.70;2.60;;;48.00;35.10;;;;;;4960821;28;20279;-74
2021/08/11 11:39:06;;;;;;;2.83;2.72;;;47.70;34.60;;;;;;4953833;28;20198;-74
2021/08/11 11:41:33;;;;;;;2.70;2.60;;;47.30;34.60;;;;;;4942251;28;20182;-74
2021/08/11 11:44:43;;;;;;;2.78;2.67;;;47.50;36.30;;;;;;4955576;28;20220;-74
2021/08/11 11:47:09;;;;;;;2.03;2.03;;;47.90;35.10;;;;;;4954192;28;20185;-72
2021/08/11 11:49:36;;;;;;;2.63;2.58;;;48.20;37.30;;;;;;4957484;28;20177;-72
2021/08/11 11:52:04;;;;;;;2.30;2.25;;;48.40;35.50;;;;;;4962679;28;20259;-72
2021/08/11 11:54:32;;;;;;;2.83;2.45;;;48.60;35.60;;;;;;4954138;28;20193;-72
2021/08/11 11:56:58;;;;;;;3.60;3.50;;;48.80;35.20;;;;;;4952981;28;20201;-72
2021/08/11 11:59:26;;;;;;;2.80;2.58;;;49.10;36.80;;;;;;4956241;28;20746;-72
2021/08/11 12:01:52;;;;;;;2.70;2.60;;;49.30;36.80;;;;;;4955049;28;20264;-72
2021/08/11 12:04:24;;;;;;;4.00;2.85;;;49.30;36.90;;;;;;4937240;28;20266;-72
2021/08/11 12:06:50;;;;;;;3.05;2.95;;;49.50;35.80;;;;;;4958069;28;20193;-72
2021/08/11 12:09:16;;;;;;;3.15;3.05;;;49.70;36.20;;;;;;4953667;28;20263;-73
2021/08/11 12:11:42;;;;;;;3.13;3.03;;;50.00;37.30;;;;;;4955745;28;20194;-72
2021/08/11 12:14:08;;;;;;;2.97;2.58;;;50.10;36.20;;;;;;4957865;28;20189;-72
2021/08/11 12:16:38;;;;;;;3.15;2.95;;;50.10;35.60;;;;;;4958525;28;20218;-72
2021/08/11 12:19:15;;;;;;;2.92;2.45;;;50.10;36.30;;;;;;4954291;28;20336;-73
2021/08/11 12:21:42;;;;;;;2.53;2.42;;;50.20;35.30;;;;;;4979421;28;20194;-73
2021/08/11 12:24:08;;;;;;;2.90;2.70;;;50.10;36.90;;;;;;4956703;28;20173;-72
2021/08/11 12:26:35;;;;;;;3.25;2.95;;;50.10;37.60;;;;;;4955912;28;20185;-72
2021/08/11 12:29:01;;;;;;;2.67;2.58;;;50.00;36.00;;;;;;4958889;28;20580;-72
2021/08/11 12:31:30;;;;;;;2.60;2.50;;;49.70;36.10;;;;;;4955500;28;20186;-73
2021/08/11 12:33:58;;;;;;;3.00;2.95;;;49.60;36.10;;;;;;4956858;28;20201;-72
2021/08/11 12:36:35;;;;;;;2.58;2.47;;;49.40;36.30;;;;;;4952932;28;20217;-72
2021/08/11 12:39:15;;;;;;;2.90;2.70;;;49.10;36.30;;;;;;4955902;28;20702;-73
2021/08/11 12:41:56;;;;;;;2.75;2.65;;;49.00;36.00;;;;;;4959857;28;20577;-71
2021/08/11 12:44:27;;;;;;;2.97;2.88;;;49.00;35.80;;;;;;4958324;28;20272;-73
2021/08/11 12:46:59;;;;;;;3.28;3.03;;;49.00;37.00;;;;;;4955270;28;20651;-73
2021/08/11 12:49:38;;;;;;;2.70;2.60;;;49.10;37.10;;;;;;4956166;28;20552;-73
2021/08/11 12:52:09;;;;;;;2.30;2.30;;;49.20;35.20;;;;;;4956486;28;20964;-73
2021/08/11 12:54:58;;;;;;;2.90;2.90;;;49.10;35.80;;;;;;4952678;28;20876;-73
2021/08/11 12:57:26;;;;;;;2.47;2.42;;;48.90;34.90;;;;;;4959767;28;20208;-71
2021/08/11 12:59:54;;;;;;;2.85;2.65;;;48.90;36.50;;;;;;4958074;28;20178;-71
2021/08/11 13:02:29;;;;;;;2.55;2.28;;;49.10;36.10;;;;;;4961014;28;20273;-71
2021/08/11 13:05:11;;;;;;;2.00;2.00;;;49.20;36.30;;;;;;4958052;28;20284;-70
2021/08/11 13:07:53;;;;;;;2.05;2.05;;;48.80;35.40;;;;;;4962496;28;20342;-72
2021/08/11 13:10:20;;;;;;;2.35;2.25;;;47.90;35.70;;;;;;4960166;28;20572;-72
2021/08/11 13:12:46;;;;;;;2.92;2.72;;;46.90;37.50;;;;;;4961188;28;20714;-72
2021/08/11 13:15:22;;;;;;;2.90;2.75;;;46.00;37.70;;;;;;4960284;28;20297;-72
2021/08/11 13:17:50;;;;;;;2.97;2.85;;;45.20;37.60;;;;;;4962742;28;20665;-71
2021/08/11 13:20:21;;;;;;;3.50;3.40;;;44.40;38.10;;;;;;4958656;28;20209;-72
2021/08/11 13:22:50;;;;;;;3.08;2.97;;;43.60;39.30;;;;;;4961327;28;20186;-72
2021/08/11 13:25:17;;;;;;;2.50;2.40;;;42.90;40.20;;;;;;4962033;28;20189;-70
2021/08/11 13:27:43;;;;;;;2.88;2.78;;;42.60;40.60;;;;;;4955362;28;20193;-71
2021/08/11 13:30:11;;;;;;;2.70;2.65;;;42.50;39.90;;;;;;4962411;28;20189;-71
2021/08/11 13:32:37;;;;;;;2.65;2.60;;;42.40;40.10;;;;;;4961134;28;20194;-70
2021/08/11 13:35:04;;;;;;;2.70;2.60;;;42.30;39.70;;;;;;4962389;28;20222;-72
2021/08/11 13:37:30;;;;;;;2.25;2.17;;;42.70;39.40;;;;;;4958250;28;20659;-72
2021/08/11 13:39:57;;;;;;;2.78;2.67;;;43.30;39.50;;;;;;4958597;28;20185;-74
2021/08/11 13:42:23;;;;;;;2.55;2.45;;;43.80;38.20;;;;;;4960223;28;20194;-74
2021/08/11 13:44:50;;;;;;;2.53;2.42;;;44.40;38.20;;;;;;4962476;28;20216;-73
2021/08/11 13:47:17;;;;;;;2.38;2.33;;;44.90;37.80;;;;;;4957768;28;20206;-73
2021/08/11 13:49:44;;;;;;;2.38;2.38;;;45.20;38.40;;;;;;4957177;28;20570;-74
2021/08/11 13:52:09;;;;;;;2.55;2.35;;;45.50;38.30;;;;;;4962128;28;20182;-71
2021/08/11 13:54:35;;;;;;;2.88;2.78;;;45.70;37.90;;;;;;4956608;28;20239;-72
2021/08/11 13:57:00;;;;;;;2.60;2.50;;;45.90;38.10;;;;;;4959566;28;20608;-71
2021/08/11 13:59:26;;;;;;;2.65;2.60;;;46.00;37.40;;;;;;4958029;28;20202;-71
2021/08/11 14:01:52;;;;;;;2.78;2.67;;;46.20;37.40;;;;;;4959815;28;21038;-71
2021/08/11 14:04:18;;;;;;;2.40;2.40;;;46.30;37.30;;;;;;4959255;28;20261;-71
2021/08/11 14:06:43;;;;;;;2.30;2.30;;;46.40;37.20;;;;;;4964202;28;20222;-71
2021/08/11 14:09:09;;;;;;;2.45;2.45;;;46.60;37.80;;;;;;4961361;28;20196;-73
2021/08/11 14:11:35;;;;;;;2.47;2.38;;;46.50;37.50;;;;;;4959355;28;20595;-73
2021/08/11 14:14:01;;;;;;;2.50;2.50;;;46.50;37.50;;;;;;4963474;28;20181;-73
2021/08/11 14:16:27;;;;;;;2.70;2.60;;;46.60;37.20;;;;;;4960890;28;20248;-73
2021/08/11 14:18:53;;;;;;;2.58;2.47;;;46.80;37.50;;;;;;4962236;28;20862;-72